Time;durP1;ratioP1;P1;durP2;ratioP2;P2;SDS_P1;SDS_P2;PMS_P1;PMS_P2;Temp;Humidity;BMP_temperature;BMP_pressure;BME280_temperature;BME280_humidity;BME280_pressure;Samples;Min_cycle;Max_cycle;Signal;HPM_P1;HPM_P2
2023/10/26 00:00:39;;;;;;;0.98;0.98;;;;;;;10.47;100.00;96772.03;4116931;28;20198;-43
2023/10/26 00:02:41;;;;;;;0.80;0.80;;;;;;;10.42;100.00;96766.63;4134908;28;20213;-44
2023/10/26 00:04:43;;;;;;;0.90;0.90;;;;;;;10.51;100.00;96775.81;4133359;28;20229;-44
2023/10/26 00:06:45;;;;;;;0.52;0.52;;;;;;;10.51;100.00;96773.06;4120119;28;20202;-44
2023/10/26 00:08:47;;;;;;;0.77;0.77;;;;;;;10.46;100.00;96770.38;4100622;28;20206;-43
2023/10/26 00:10:50;;;;;;;0.90;0.90;;;;;;;10.42;100.00;96763.91;4134858;28;20233;-43
2023/10/26 00:12:51;;;;;;;0.95;0.70;;;;;;;10.46;100.00;96776.69;4117284;28;20228;-43
2023/10/26 00:14:53;;;;;;;0.63;0.63;;;;;;;10.41;100.00;96778.69;4102499;28;20235;-44
2023/10/26 00:16:55;;;;;;;0.75;0.75;;;;;;;10.48;100.00;96779.13;4136130;28;20696;-44
2023/10/26 00:18:57;;;;;;;0.85;0.85;;;;;;;10.47;100.00;96782.97;4100488;28;20223;-44
2023/10/26 00:20:59;;;;;;;1.00;1.00;;;;;;;10.41;100.00;96784.94;4099950;28;20217;-43
2023/10/26 00:23:02;;;;;;;0.88;0.88;;;;;;;10.38;100.00;96779.25;4114053;28;20581;-43
2023/10/26 00:25:05;;;;;;;12.27;1.08;;;;;;;10.39;100.00;96789.06;4134255;28;20232;-43
2023/10/26 00:27:07;;;;;;;0.80;0.80;;;;;;;10.40;100.00;96787.97;4134791;28;20216;-44
2023/10/26 00:29:08;;;;;;;0.73;0.73;;;;;;;10.43;100.00;96784.66;4118522;28;20642;-44
2023/10/26 00:31:10;;;;;;;0.75;0.75;;;;;;;10.46;100.00;96786.78;4101538;28;20230;-43
2023/10/26 00:33:12;;;;;;;0.75;0.73;;;;;;;10.44;100.00;96789.84;4136330;28;20639;-44
2023/10/26 00:35:14;;;;;;;0.82;0.82;;;;;;;10.35;100.00;96790.78;4134818;28;20228;-44
2023/10/26 00:37:16;;;;;;;0.90;0.90;;;;;;;10.42;100.00;96785.78;4117864;28;20667;-43
2023/10/26 00:39:17;;;;;;;0.70;0.68;;;;;;;10.37;100.00;96796.75;4117227;28;20595;-43
2023/10/26 00:41:19;;;;;;;0.85;0.85;;;;;;;10.31;100.00;96792.44;4120029;28;20619;-44
2023/10/26 00:43:22;;;;;;;1.08;1.08;;;;;;;10.42;100.00;96796.72;4103172;28;20269;-43
2023/10/26 00:45:24;;;;;;;0.98;0.98;;;;;;;10.29;100.00;96800.13;4109483;28;20633;-43
2023/10/26 00:47:26;;;;;;;0.90;0.90;;;;;;;10.38;100.00;96801.13;4104589;28;20243;-44
2023/10/26 00:49:28;;;;;;;0.90;0.90;;;;;;;10.42;100.00;96802.97;4120176;28;20210;-43
2023/10/26 00:51:30;;;;;;;1.17;1.17;;;;;;;10.38;100.00;96806.59;4119957;28;20948;-43
2023/10/26 00:53:32;;;;;;;1.02;1.02;;;;;;;10.43;100.00;96798.31;4117562;28;20210;-43
2023/10/26 00:55:34;;;;;;;1.00;1.00;;;;;;;10.34;100.00;96800.09;4105550;28;20722;-44
2023/10/26 00:57:36;;;;;;;0.80;0.80;;;;;;;10.43;100.00;96810.09;4088581;28;20216;-43
2023/10/26 00:59:39;;;;;;;0.80;0.80;;;;;;;10.41;100.00;96817.75;4115819;28;20210;-43
2023/10/26 01:01:41;;;;;;;0.80;0.80;;;;;;;10.38;100.00;96812.03;4113541;28;20207;-44
2023/10/26 01:03:43;;;;;;;1.08;1.00;;;;;;;10.36;100.00;96817.00;4099809;28;20590;-44
2023/10/26 01:05:45;;;;;;;0.98;0.98;;;;;;;10.34;100.00;96817.28;4100846;28;20266;-43
2023/10/26 01:07:47;;;;;;;0.80;0.80;;;;;;;10.31;100.00;96819.78;4121256;28;20719;-43
2023/10/26 01:09:48;;;;;;;3.53;0.98;;;;;;;10.28;100.00;96820.38;4119079;28;20210;-44
2023/10/26 01:11:50;;;;;;;1.20;1.10;;;;;;;10.22;100.00;96813.31;4117865;28;20219;-43
2023/10/26 01:13:52;;;;;;;1.10;1.00;;;;;;;10.25;100.00;96819.03;4103012;28;20228;-43
2023/10/26 01:15:54;;;;;;;0.70;0.70;;;;;;;10.30;100.00;96815.44;4135534;28;20221;-43
2023/10/26 01:17:55;;;;;;;0.77;0.77;;;;;;;10.19;100.00;96813.88;4118109;28;20214;-43
2023/10/26 01:19:57;;;;;;;0.90;0.90;;;;;;;10.13;100.00;96820.50;4120148;28;21722;-43
2023/10/26 01:21:59;;;;;;;1.20;1.20;;;;;;;10.20;100.00;96818.25;4138089;28;20218;-44
2023/10/26 01:24:01;;;;;;;1.27;1.23;;;;;;;10.19;100.00;96830.28;4120038;28;20285;-44
2023/10/26 01:26:03;;;;;;;0.73;0.73;;;;;;;10.26;100.00;96828.03;4117370;28;20226;-44
2023/10/26 01:28:07;;;;;;;1.20;1.13;;;;;;;10.19;100.00;96830.28;4136172;28;20237;-44
2023/10/26 01:30:09;;;;;;;1.15;1.08;;;;;;;10.24;100.00;96835.72;4103315;28;20203;-44
2023/10/26 01:32:11;;;;;;;3.65;2.97;;;;;;;10.25;100.00;96831.88;4118632;28;20208;-44
2023/10/26 01:34:12;;;;;;;0.80;0.80;;;;;;;10.20;100.00;96831.91;4116067;28;20257;-44
2023/10/26 01:36:14;;;;;;;1.00;1.00;;;;;;;10.21;100.00;96828.09;4101555;28;20214;-44
2023/10/26 01:38:16;;;;;;;1.25;1.20;;;;;;;10.17;100.00;96827.03;4119040;28;20514;-44
2023/10/26 01:40:17;;;;;;;1.20;1.15;;;;;;;10.15;100.00;96829.25;4119895;28;20318;-43
2023/10/26 01:42:19;;;;;;;1.10;1.10;;;;;;;10.17;100.00;96827.88;4118335;28;20271;-44
2023/10/26 01:44:21;;;;;;;1.08;1.08;;;;;;;10.16;100.00;96830.88;4101148;28;20235;-43
2023/10/26 01:46:23;;;;;;;1.27;1.17;;;;;;;10.24;100.00;96824.78;4118509;28;20256;-44
2023/10/26 01:48:25;;;;;;;1.67;1.35;;;;;;;10.27;100.00;96826.94;4118982;28;20751;-44
2023/10/26 01:50:29;;;;;;;0.93;0.93;;;;;;;10.28;100.00;96817.66;4121167;28;20292;-44
2023/10/26 01:52:30;;;;;;;0.80;0.80;;;;;;;10.23;100.00;96820.41;4119759;28;20610;-44
2023/10/26 01:54:32;;;;;;;1.00;1.00;;;;;;;10.18;100.00;96823.19;4102780;28;20232;-43
2023/10/26 01:56:35;;;;;;;0.80;0.80;;;;;;;10.24;100.00;96827.50;4115553;28;20740;-44
2023/10/26 01:58:36;;;;;;;0.90;0.90;;;;;;;10.16;100.00;96819.94;4104348;28;20323;-44
2023/10/26 02:00:38;;;;;;;1.30;1.30;;;;;;;10.22;100.00;96821.53;4106534;28;20261;-44
2023/10/26 02:02:41;;;;;;;1.10;1.00;;;;;;;10.17;100.00;96824.31;4134556;28;20268;-44
2023/10/26 02:04:43;;;;;;;1.55;1.30;;;;;;;10.12;100.00;96818.88;4102930;28;20606;-44
2023/10/26 02:06:45;;;;;;;1.13;1.10;;;;;;;10.16;100.00;96819.94;4136765;28;20220;-44
2023/10/26 02:08:47;;;;;;;3.33;1.20;;;;;;;10.11;100.00;96822.72;4104598;28;20719;-44
2023/10/26 02:10:48;;;;;;;1.17;1.15;;;;;;;10.12;100.00;96818.88;4119857;28;20237;-44
2023/10/26 02:12:50;;;;;;;0.80;0.80;;;;;;;10.14;100.00;96822.16;4102617;28;20207;-44
2023/10/26 02:14:52;;;;;;;1.05;1.05;;;;;;;10.03;100.00;96812.41;4118553;28;20285;-45
2023/10/26 02:16:54;;;;;;;0.85;0.85;;;;;;;9.99;100.00;96825.00;4102494;28;20214;-44
2023/10/26 02:18:55;;;;;;;1.23;1.23;;;;;;;9.95;100.00;96818.50;4103749;28;20215;-44
2023/10/26 02:20:59;;;;;;;2.00;1.23;;;;;;;9.95;100.00;96822.03;4121892;28;20676;-44
2023/10/26 02:23:02;;;;;;;1.05;1.05;;;;;;;9.85;100.00;96813.09;4103179;28;20217;-43
2023/10/26 02:25:04;;;;;;;0.70;0.70;;;;;;;9.86;100.00;96821.03;4118668;28;20261;-44
2023/10/26 02:27:09;;;;;;;0.90;0.90;;;;;;;9.91;100.00;96822.88;4103835;28;20242;-44
2023/10/26 02:29:10;;;;;;;1.17;1.08;;;;;;;9.95;100.00;96830.22;4135356;28;20229;-43
2023/10/26 02:31:12;;;;;;;1.27;1.17;;;;;;;9.87;100.00;96828.09;4119127;28;20276;-43
2023/10/26 02:33:14;;;;;;;1.20;1.10;;;;;;;9.76;100.00;96821.09;4117801;28;20222;-44
2023/10/26 02:35:20;;;;;;;0.80;0.80;;;;;;;9.81;100.00;96823.78;4119527;28;20266;-44
2023/10/26 02:37:22;;;;;;;1.48;1.10;;;;;;;9.77;100.00;96827.38;4120916;28;20635;-44
2023/10/26 02:39:24;;;;;;;0.88;0.88;;;;;;;9.86;100.00;96822.91;4134821;28;20205;-43
2023/10/26 02:41:26;;;;;;;1.10;0.80;;;;;;;9.80;100.00;96819.44;4121196;28;20262;-44
2023/10/26 02:43:28;;;;;;;1.17;1.17;;;;;;;9.81;100.00;96817.53;4119779;28;20209;-44
2023/10/26 02:45:31;;;;;;;2.25;1.48;;;;;;;9.73;100.00;96826.31;4102422;28;20641;-44
2023/10/26 02:47:32;;;;;;;1.23;1.17;;;;;;;9.86;100.00;96817.47;4115058;28;20241;-44
2023/10/26 02:49:34;;;;;;;1.30;1.30;;;;;;;9.76;100.00;96810.16;4116728;28;20220;-44
2023/10/26 02:51:36;;;;;;;0.88;0.88;;;;;;;9.73;100.00;96809.91;4102688;28;20223;-43
2023/10/26 02:53:38;;;;;;;1.00;1.00;;;;;;;9.65;100.00;96803.19;4103610;28;20212;-44
2023/10/26 02:55:39;;;;;;;0.75;0.75;;;;;;;9.77;100.00;96805.53;4120305;28;20808;-44
2023/10/26 02:57:41;;;;;;;0.93;0.93;;;;;;;9.82;100.00;96808.22;4117630;28;20612;-44
2023/10/26 02:59:43;;;;;;;1.27;1.27;;;;;;;9.85;100.00;96802.19;4118644;28;20608;-44
2023/10/26 03:01:44;;;;;;;0.90;0.90;;;;;;;9.75;100.00;96802.28;4118138;28;20210;-44
2023/10/26 03:03:46;;;;;;;1.10;1.08;;;;;;;9.76;100.00;96801.97;4117605;28;20264;-44
2023/10/26 03:05:48;;;;;;;0.93;0.93;;;;;;;9.68;100.00;96799.88;4132642;28;20663;-44
2023/10/26 03:07:50;;;;;;;0.90;0.90;;;;;;;9.72;100.00;96802.84;4134590;28;20711;-44
2023/10/26 03:09:52;;;;;;;1.15;1.10;;;;;;;9.76;100.00;96803.91;4114501;28;20219;-44
2023/10/26 03:11:54;;;;;;;0.80;0.80;;;;;;;9.56;100.00;96798.63;4070575;29;21221;-45
2023/10/26 03:13:55;;;;;;;0.88;0.88;;;;;;;9.63;100.00;96793.66;4104095;28;20238;-45
2023/10/26 03:15:57;;;;;;;1.23;1.17;;;;;;;9.62;100.00;96792.81;4103232;28;20212;-44
2023/10/26 03:17:59;;;;;;;1.27;1.25;;;;;;;9.65;100.00;96796.91;4100439;28;20589;-43
2023/10/26 03:20:01;;;;;;;1.13;1.10;;;;;;;9.67;100.00;96791.97;4132978;28;20337;-44
2023/10/26 03:22:03;;;;;;;1.00;1.00;;;;;;;9.52;100.00;96792.09;4118530;28;20206;-44
2023/10/26 03:24:05;;;;;;;0.98;0.98;;;;;;;9.49;100.00;96785.28;4103873;28;20223;-43
2023/10/26 03:26:10;;;;;;;5.10;1.48;;;;;;;9.56;100.00;96795.88;4102516;28;20243;-45
2023/10/26 03:28:12;;;;;;;1.35;1.10;;;;;;;9.57;100.00;96795.59;4102142;28;20678;-44
2023/10/26 03:30:15;;;;;;;1.10;1.00;;;;;;;9.51;100.00;96790.47;4117130;28;20277;-43
2023/10/26 03:32:19;;;;;;;0.85;0.85;;;;;;;9.42;100.00;96787.53;4133359;28;20323;-43
2023/10/26 03:34:21;;;;;;;1.02;1.02;;;;;;;9.45;100.00;96783.41;4099942;28;20230;-44
2023/10/26 03:36:23;;;;;;;1.00;1.00;;;;;;;9.41;100.00;96785.09;4102302;28;20788;-44
2023/10/26 03:38:25;;;;;;;1.40;1.20;;;;;;;9.29;100.00;96781.91;4118548;28;20214;-44
2023/10/26 03:40:27;;;;;;;1.10;1.10;;;;;;;9.27;100.00;96784.91;4100146;28;20215;-43
2023/10/26 03:42:28;;;;;;;0.90;0.90;;;;;;;9.27;100.00;96784.91;4118559;28;20882;-43
2023/10/26 03:44:30;;;;;;;1.02;0.93;;;;;;;9.10;100.00;96789.13;4135111;28;20470;-44
2023/10/26 03:46:32;;;;;;;1.10;1.10;;;;;;;9.29;100.00;96787.38;4115171;28;20729;-44
2023/10/26 03:48:35;;;;;;;0.90;0.90;;;;;;;9.25;100.00;96780.84;4117382;28;20206;-44
2023/10/26 03:50:37;;;;;;;1.10;1.10;;;;;;;9.31;100.00;96790.63;4116599;28;20293;-43
2023/10/26 03:52:39;;;;;;;0.95;0.95;;;;;;;9.32;100.00;96786.78;4118258;28;20206;-44
2023/10/26 03:54:41;;;;;;;1.70;1.60;;;;;;;9.36;100.00;96787.84;4100343;28;20226;-43
2023/10/26 03:56:43;;;;;;;1.05;1.00;;;;;;;9.34;100.00;96790.06;4103899;28;20209;-43
2023/10/26 03:58:45;;;;;;;1.58;1.48;;;;;;;9.35;100.00;96786.22;4115540;28;20277;-43
2023/10/26 04:00:47;;;;;;;1.10;1.10;;;;;;;9.41;100.00;96796.00;4100307;28;20571;-44
2023/10/26 04:02:49;;;;;;;1.30;1.20;;;;;;;9.25;100.00;96797.22;4115410;28;20830;-44
2023/10/26 04:04:51;;;;;;;2.00;1.90;;;;;;;9.24;100.00;96792.84;4130178;28;20766;-43
2023/10/26 04:06:52;;;;;;;1.50;1.40;;;;;;;9.19;100.00;96795.59;4098257;28;20275;-44
2023/10/26 04:08:56;;;;;;;1.60;1.50;;;;;;;9.17;100.00;96795.09;4100244;28;20219;-44
2023/10/26 04:10:58;;;;;;;1.27;1.17;;;;;;;9.24;100.00;96790.13;4130918;28;20239;-43
2023/10/26 04:13:00;;;;;;;1.52;1.42;;;;;;;9.11;100.00;96790.75;4131392;28;20205;-44
2023/10/26 04:15:03;;;;;;;1.00;1.00;;;;;;;9.21;100.00;96791.50;4103168;28;20229;-44
2023/10/26 04:17:05;;;;;;;1.45;1.42;;;;;;;9.12;100.00;96787.75;4122690;28;20222;-43
2023/10/26 04:19:06;;;;;;;1.33;1.00;;;;;;;9.11;100.00;96786.13;4106036;28;20274;-44
2023/10/26 04:21:08;;;;;;;1.85;1.75;;;;;;;9.14;100.00;96795.66;4108317;28;20202;-44
2023/10/26 04:23:10;;;;;;;1.70;1.60;;;;;;;9.12;100.00;96782.28;4109650;28;20596;-44
2023/10/26 04:25:12;;;;;;;1.40;1.35;;;;;;;9.10;100.00;96784.50;4128284;28;20232;-43
2023/10/26 04:27:14;;;;;;;1.40;1.30;;;;;;;9.14;100.00;96785.53;4125477;28;20217;-44
2023/10/26 04:29:16;;;;;;;1.45;1.35;;;;;;;9.11;100.00;96785.28;4104560;28;20218;-44
2023/10/26 04:31:20;;;;;;;1.42;1.33;;;;;;;9.13;100.00;96780.38;4108556;28;20241;-43
2023/10/26 04:33:22;;;;;;;1.73;1.63;;;;;;;9.07;100.00;96781.50;4106384;28;20686;-44
2023/10/26 04:35:24;;;;;;;1.15;1.15;;;;;;;9.17;100.00;96781.44;4125834;28;20280;-44
2023/10/26 04:37:25;;;;;;;1.58;1.55;;;;;;;9.14;100.00;96776.56;4125311;28;20735;-44
2023/10/26 04:39:27;;;;;;;1.65;1.48;;;;;;;9.04;100.00;96779.34;4137852;28;20232;-44
2023/10/26 04:41:30;;;;;;;1.60;1.50;;;;;;;9.12;100.00;96781.47;4105017;28;20764;-44
2023/10/26 04:43:32;;;;;;;2.20;1.85;;;;;;;9.28;100.00;96780.28;4122039;28;20214;-44
2023/10/26 04:45:34;;;;;;;2.13;2.03;;;;;;;9.27;100.00;96778.63;4137736;28;20275;-45
2023/10/26 04:47:36;;;;;;;1.65;1.55;;;;;;;9.27;100.00;96778.63;4104829;28;20218;-44
2023/10/26 04:49:38;;;;;;;2.53;1.27;;;;;;;9.29;100.00;96777.25;4104431;28;20695;-44
2023/10/26 04:51:39;;;;;;;1.52;1.42;;;;;;;9.30;100.00;96780.81;4105555;28;20226;-44
2023/10/26 04:53:41;;;;;;;1.38;1.27;;;;;;;9.36;100.00;96787.84;4106911;28;20634;-44
2023/10/26 04:55:43;;;;;;;1.15;1.10;;;;;;;9.31;100.00;96774.25;4105374;28;20211;-43
2023/10/26 04:57:45;;;;;;;1.55;1.45;;;;;;;9.37;100.00;96779.38;4107901;28;20261;-44
2023/10/26 04:59:47;;;;;;;1.50;1.40;;;;;;;9.35;100.00;96769.84;4136924;28;20723;-44
2023/10/26 05:01:49;;;;;;;1.58;1.48;;;;;;;9.41;100.00;96769.50;4108092;28;20220;-44
2023/10/26 05:03:53;;;;;;;1.27;1.17;;;;;;;9.37;100.00;96773.09;4105454;28;20468;-43
2023/10/26 05:05:55;;;;;;;1.20;1.20;;;;;;;9.40;100.00;96775.25;4104356;28;20218;-43
2023/10/26 05:07:57;;;;;;;1.23;1.23;;;;;;;9.45;100.00;96775.22;4100244;28;20294;-44
2023/10/26 05:10:02;;;;;;;1.58;1.48;;;;;;;9.41;100.00;96774.97;4102325;28;20250;-44
2023/10/26 05:12:04;;;;;;;1.42;1.40;;;;;;;9.41;100.00;96776.91;4102311;28;20712;-45
2023/10/26 05:14:07;;;;;;;1.40;1.40;;;;;;;9.39;100.00;96774.44;4107717;28;20347;-44
2023/10/26 05:16:08;;;;;;;1.50;1.40;;;;;;;9.42;100.00;96764.88;4121347;28;20214;-44
2023/10/26 05:18:10;;;;;;;0.82;0.82;;;;;;;9.49;100.00;96760.72;4121748;28;20221;-44
2023/10/26 05:20:12;;;;;;;1.40;1.30;;;;;;;9.45;100.00;96761.56;4121633;28;20221;-44
2023/10/26 05:22:17;;;;;;;1.13;1.10;;;;;;;9.45;100.00;96758.84;4121242;28;20241;-44
2023/10/26 05:24:18;;;;;;;1.48;1.38;;;;;;;9.47;100.00;96762.09;4136940;28;20241;-43
2023/10/26 05:26:20;;;;;;;1.45;1.35;;;;;;;9.59;100.00;96762.53;4103594;28;20298;-44
2023/10/26 05:28:22;;;;;;;2.00;1.65;;;;;;;9.50;100.00;96756.91;4116370;28;20211;-44
2023/10/26 05:30:24;;;;;;;1.92;1.80;;;;;;;9.49;100.00;96759.91;4118527;28;20668;-43
2023/10/26 05:32:26;;;;;;;1.55;1.45;;;;;;;9.49;100.00;96749.00;4132108;28;20237;-44
2023/10/26 05:34:29;;;;;;;1.92;1.80;;;;;;;9.50;100.00;96753.34;4115744;28;22263;-44
2023/10/26 05:36:31;;;;;;;2.60;2.42;;;;;;;9.48;100.00;96756.34;4103670;28;20269;-44
2023/10/26 05:38:33;;;;;;;9.10;1.95;;;;;;;9.41;100.00;96752.34;4105249;28;20975;-44
2023/10/26 05:40:35;;;;;;;1.55;1.45;;;;;;;9.39;100.00;96754.53;4087992;28;20761;-44
2023/10/26 05:42:37;;;;;;;1.95;1.85;;;;;;;9.54;100.00;96757.16;4088502;28;20212;-44
2023/10/26 05:44:38;;;;;;;2.35;1.77;;;;;;;9.58;100.00;96752.72;4102135;28;20222;-44
2023/10/26 05:46:40;;;;;;;1.35;1.25;;;;;;;9.36;100.00;96739.53;4102642;28;20262;-44
2023/10/26 05:48:42;;;;;;;4.53;1.50;;;;;;;9.25;100.00;96740.72;4121590;28;20214;-44
2023/10/26 05:50:44;;;;;;;1.70;1.60;;;;;;;9.30;100.00;96751.59;4118527;28;20210;-44
2023/10/26 05:52:46;;;;;;;1.70;1.60;;;;;;;9.29;100.00;96752.69;4102057;28;20231;-44
2023/10/26 05:54:48;;;;;;;1.77;1.50;;;;;;;9.31;100.00;96752.41;4105474;28;20829;-44
2023/10/26 05:56:50;;;;;;;2.28;2.17;;;;;;;9.35;100.00;96748.03;4101970;28;20281;-44
2023/10/26 05:58:51;;;;;;;3.92;1.92;;;;;;;9.40;100.00;96748.78;4136089;28;20210;-44
2023/10/26 06:00:53;;;;;;;1.27;1.17;;;;;;;9.39;100.00;96743.59;4133677;28;20228;-44
2023/10/26 06:02:55;;;;;;;1.15;1.15;;;;;;;9.46;100.00;96749.53;4116931;28;20548;-44
2023/10/26 06:04:57;;;;;;;1.35;1.35;;;;;;;9.54;100.00;96757.94;4117119;28;20266;-45
2023/10/26 06:06:59;;;;;;;2.17;2.08;;;;;;;9.46;100.00;96755.00;4100638;28;20210;-43
2023/10/26 06:09:02;;;;;;;1.63;1.50;;;;;;;9.47;100.00;96752.00;4134930;28;20210;-44
2023/10/26 06:11:04;;;;;;;1.92;1.83;;;;;;;9.48;100.00;96741.91;4136185;28;20215;-44
2023/10/26 06:13:09;;;;;;;1.98;1.88;;;;;;;9.50;100.00;96745.16;4118845;28;20222;-44
2023/10/26 06:15:11;;;;;;;3.85;1.73;;;;;;;9.48;100.00;96741.91;4119068;28;20294;-45
2023/10/26 06:17:13;;;;;;;1.95;1.70;;;;;;;9.50;100.00;96734.22;4118978;28;20929;-43
2023/10/26 06:19:15;;;;;;;1.60;1.50;;;;;;;9.46;100.00;96739.47;4118430;28;20256;-44
2023/10/26 06:21:16;;;;;;;1.70;1.60;;;;;;;9.46;100.00;96750.38;4118315;28;20214;-45
2023/10/26 06:23:18;;;;;;;2.60;2.40;;;;;;;9.50;100.00;96751.44;4136086;28;20857;-45
2023/10/26 06:25:20;;;;;;;1.70;1.60;;;;;;;9.54;100.00;96748.94;4137926;28;20234;-44
2023/10/26 06:27:22;;;;;;;1.83;1.73;;;;;;;9.61;100.00;96739.31;4121536;28;20281;-44
2023/10/26 06:29:24;;;;;;;1.88;1.67;;;;;;;9.51;100.00;96746.78;4135671;28;20215;-44
2023/10/26 06:31:32;;;;;;;1.77;1.67;;;;;;;9.52;100.00;96740.22;4120148;28;20219;-44
2023/10/26 06:33:34;;;;;;;2.42;2.20;;;;;;;9.53;100.00;96734.47;4120425;28;20659;-43
2023/10/26 06:35:36;;;;;;;1.90;1.80;;;;;;;9.51;100.00;96727.66;4135119;28;20225;-44
2023/10/26 06:37:37;;;;;;;2.97;2.70;;;;;;;9.53;100.00;96731.75;4103083;28;20215;-44
2023/10/26 06:39:39;;;;;;;1.60;1.50;;;;;;;9.41;100.00;96741.41;4087041;28;20310;-44
2023/10/26 06:41:44;;;;;;;2.08;1.98;;;;;;;9.44;100.00;96735.38;4123466;28;20257;-44
2023/10/26 06:43:46;;;;;;;1.70;1.60;;;;;;;9.44;100.00;96735.38;4103277;28;20340;-46
2023/10/26 06:45:48;;;;;;;2.35;2.22;;;;;;;9.54;100.00;96740.75;4105356;28;20215;-45
2023/10/26 06:47:50;;;;;;;1.88;1.77;;;;;;;9.53;100.00;96739.09;4106177;28;20294;-44
2023/10/26 06:49:52;;;;;;;1.65;1.55;;;;;;;9.55;100.00;96736.94;4137139;28;20260;-44
2023/10/26 06:51:54;;;;;;;2.17;2.08;;;;;;;9.59;100.00;96744.25;4101999;28;20234;-44
2023/10/26 06:53:56;;;;;;;18.17;1.50;;;;;;;9.55;100.00;96743.19;4086985;28;20212;-45
2023/10/26 06:55:58;;;;;;;1.88;1.77;;;;;;;9.57;100.00;96737.44;4088126;28;20215;-45
2023/10/26 06:58:00;;;;;;;1.75;1.65;;;;;;;9.63;100.00;96744.50;4103096;28;20221;-48
2023/10/26 07:00:02;;;;;;;1.90;1.75;;;;;;;9.64;100.00;96740.66;4100304;28;20210;-45
2023/10/26 07:02:04;;;;;;;1.67;1.58;;;;;;;9.72;100.00;96745.50;4103060;28;20606;-44
2023/10/26 07:04:12;;;;;;;2.00;1.90;;;;;;;9.70;100.00;96734.88;4100745;28;20226;-46
2023/10/26 07:06:14;;;;;;;1.58;1.48;;;;;;;9.77;100.00;96735.34;4103668;28;20318;-45
2023/10/26 07:08:17;;;;;;;2.00;1.83;;;;;;;9.75;100.00;96742.19;4106571;28;20246;-45
2023/10/26 07:10:19;;;;;;;1.80;1.60;;;;;;;9.81;100.00;96736.38;4087952;28;20230;-44
2023/10/26 07:12:21;;;;;;;1.50;1.40;;;;;;;9.70;100.00;96740.34;4102281;28;20622;-46
2023/10/26 07:14:24;;;;;;;7.65;1.88;;;;;;;9.76;100.00;96732.91;4102363;28;20223;-45
2023/10/26 07:16:25;;;;;;;1.88;1.77;;;;;;;9.72;100.00;96732.66;4105906;28;20211;-44
2023/10/26 07:18:31;;;;;;;1.25;1.20;;;;;;;9.79;100.00;96732.31;4119902;28;20260;-44
2023/10/26 07:20:33;;;;;;;1.90;1.80;;;;;;;9.97;100.00;96721.47;4104942;28;20213;-45
2023/10/26 07:22:35;;;;;;;2.22;2.03;;;;;;;9.92;100.00;96707.03;4100669;28;20772;-45
2023/10/26 07:24:37;;;;;;;3.00;2.35;;;;;;;9.93;100.00;96711.41;4103278;28;20251;-45
2023/10/26 07:26:39;;;;;;;2.20;2.08;;;;;;;9.87;100.00;96701.66;4103031;28;21399;-44
2023/10/26 07:28:41;;;;;;;1.48;1.40;;;;;;;9.93;100.00;96708.66;4123708;28;20298;-45
2023/10/26 07:30:43;;;;;;;1.83;1.65;;;;;;;9.99;100.00;96721.16;4134869;28;20344;-44
2023/10/26 07:32:45;;;;;;;2.13;1.95;;;;;;;9.98;100.00;96719.53;4099961;28;20237;-45
2023/10/26 07:34:47;;;;;;;1.63;1.52;;;;;;;9.97;100.00;96715.19;4120671;28;20222;-45
2023/10/26 07:36:49;;;;;;;6.45;1.48;;;;;;;9.98;100.00;96708.63;4100503;28;20203;-44
2023/10/26 07:38:51;;;;;;;1.38;1.27;;;;;;;10.03;100.00;96708.56;4102434;28;20238;-44
2023/10/26 07:41:13;;;;;;;2.03;1.83;;;;;;;9.99;100.00;96710.25;4117303;28;20215;-45
2023/10/26 07:43:16;;;;;;;1.50;1.40;;;;;;;9.97;100.00;96705.09;4101327;28;20199;-45
2023/10/26 07:45:18;;;;;;;4.20;2.58;;;;;;;10.02;100.00;96709.69;4119104;28;20747;-45
2023/10/26 07:47:21;;;;;;;2.33;1.67;;;;;;;9.94;100.00;96707.59;4101537;28;20207;-45
2023/10/26 07:49:23;;;;;;;1.63;1.50;;;;;;;10.03;100.00;96700.38;4115736;28;20223;-45
2023/10/26 07:51:25;;;;;;;2.22;2.05;;;;;;;10.07;100.00;96701.47;4133300;28;20221;-45
2023/10/26 07:53:30;;;;;;;1.67;1.58;;;;;;;10.16;100.00;96694.22;4086837;28;20227;-45
2023/10/26 07:55:33;;;;;;;2.45;2.25;;;;;;;10.05;100.00;96696.28;4118917;28;20252;-46
2023/10/26 07:57:35;;;;;;;2.25;2.08;;;;;;;10.16;100.00;96694.22;4138536;28;20244;-45
2023/10/26 07:59:37;;;;;;;1.85;1.75;;;;;;;9.99;100.00;96685.66;4120150;28;20293;-44
2023/10/26 08:01:38;;;;;;;2.03;1.85;;;;;;;10.07;100.00;96680.41;4116232;28;20214;-45
2023/10/26 08:03:41;;;;;;;2.05;1.85;;;;;;;10.19;100.00;96699.09;4099995;28;20218;-44
2023/10/26 08:05:42;;;;;;;3.80;2.03;;;;;;;10.28;100.00;96713.78;4107393;28;20206;-45
2023/10/26 08:07:47;;;;;;;6.40;2.50;;;;;;;10.34;100.00;96718.06;4119382;28;20202;-45
2023/10/26 08:09:49;;;;;;;1.48;1.38;;;;;;;10.33;100.00;96710.94;4085129;28;20207;-45
2023/10/26 08:11:51;;;;;;;1.70;1.60;;;;;;;10.45;100.00;96709.44;4117590;28;20218;-45
2023/10/26 08:13:53;;;;;;;2.15;1.95;;;;;;;10.32;100.00;96701.94;4134440;28;20229;-44
2023/10/26 08:15:55;;;;;;;2.17;1.98;;;;;;;10.33;100.00;96700.03;4117612;28;20213;-45
2023/10/26 08:18:17;;;;;;;2.75;2.55;;;;;;;10.39;100.00;96704.31;4114490;28;20697;-46
2023/10/26 08:20:19;;;;;;;3.80;2.35;;;;;;;10.32;100.00;96714.78;4105117;28;20257;-46
2023/10/26 08:22:27;;;;;;;2.17;2.08;;;;;;;10.38;100.00;96708.16;4100219;28;20630;-45
2023/10/26 08:24:29;;;;;;;1.77;1.67;;;;;;;10.35;100.00;96709.56;4110651;28;20696;-47
2023/10/26 08:26:37;;;;;;;2.78;2.58;;;;;;;10.40;100.00;96727.81;4116681;28;20214;-44
2023/10/26 08:28:42;;;;;;;1.73;1.63;;;;;;;10.45;100.00;96745.00;4102473;28;20199;-46
2023/10/26 08:30:43;;;;;;;1.85;1.75;;;;;;;10.48;100.00;96746.31;4131452;28;20213;-46
2023/10/26 08:32:45;;;;;;;2.90;2.67;;;;;;;10.47;100.00;96745.50;4098173;28;20235;-47
2023/10/26 08:34:47;;;;;;;3.22;2.85;;;;;;;10.49;100.00;96758.88;4101449;28;20673;-47
2023/10/26 08:36:49;;;;;;;3.05;2.85;;;;;;;10.49;100.00;96758.88;4117422;28;20901;-46
2023/10/26 08:39:12;;;;;;;2.95;2.70;;;;;;;10.49;100.00;96758.88;4114084;28;20600;-47
2023/10/26 08:41:14;;;;;;;2.58;2.38;;;;;;;10.47;100.00;96766.56;4086661;28;20219;-46
2023/10/26 08:43:17;;;;;;;2.60;2.40;;;;;;;10.50;100.00;96771.44;4118464;28;20268;-46
2023/10/26 08:45:27;;;;;;;3.15;2.95;;;;;;;10.44;100.00;96778.09;4116214;28;20258;-45
2023/10/26 08:47:29;;;;;;;2.22;2.05;;;;;;;10.50;100.00;96787.84;4117795;28;20710;-45
2023/10/26 08:49:32;;;;;;;3.60;3.30;;;;;;;10.54;100.00;96791.66;4113603;28;20222;-45
2023/10/26 08:51:34;;;;;;;2.58;2.38;;;;;;;10.48;100.00;96784.59;4117868;28;20206;-46
2023/10/26 08:53:35;;;;;;;2.50;1.75;;;;;;;10.43;100.00;96773.72;4131636;28;20225;-46
2023/10/26 08:55:42;;;;;;;2.05;1.83;;;;;;;10.41;100.00;96778.69;4117520;28;21161;-45
2023/10/26 08:57:48;;;;;;;2.28;2.17;;;;;;;10.48;100.00;96779.13;4118695;28;20353;-47
2023/10/26 08:59:50;;;;;;;2.47;2.30;;;;;;;10.42;100.00;96774.84;4118280;28;20211;-46
2023/10/26 09:01:52;;;;;;;2.00;1.90;;;;;;;10.38;100.00;96769.13;4119557;28;20277;-45
2023/10/26 09:03:54;;;;;;;2.33;2.05;;;;;;;10.40;100.00;96768.81;4121193;28;20211;-48
2023/10/26 09:05:56;;;;;;;13.45;3.38;;;;;;;10.33;100.00;96765.63;4123115;28;20202;-45
2023/10/26 09:07:58;;;;;;;2.97;2.65;;;;;;;10.37;100.00;96778.44;4102205;28;20264;-46
2023/10/26 09:10:00;;;;;;;2.60;2.50;;;;;;;10.39;100.00;96769.94;4102440;28;20282;-45
2023/10/26 09:12:09;;;;;;;1.45;1.35;;;;;;;10.28;100.00;96768.44;4105214;28;20673;-44
2023/10/26 09:14:17;;;;;;;5.20;2.65;;;;;;;10.31;100.00;96767.84;4122124;28;20281;-45
2023/10/26 09:16:34;;;;;;;2.00;1.90;;;;;;;10.28;100.00;96773.91;4122418;28;20210;-46
2023/10/26 09:18:36;;;;;;;2.75;2.55;;;;;;;10.34;100.00;96776.28;4120725;28;20206;-45
2023/10/26 09:20:38;;;;;;;2.25;1.88;;;;;;;10.32;100.00;96764.81;4136656;28;20220;-45
2023/10/26 09:22:40;;;;;;;2.45;2.25;;;;;;;10.34;100.00;96753.59;4101850;28;20222;-44
2023/10/26 09:24:42;;;;;;;2.10;1.90;;;;;;;10.36;100.00;96748.66;4119425;28;20246;-45
2023/10/26 09:26:44;;;;;;;2.00;1.90;;;;;;;10.51;100.00;96751.19;4104886;28;20217;-45
2023/10/26 09:28:56;;;;;;;5.03;2.35;;;;;;;10.47;100.00;96750.16;4107347;28;20210;-46
2023/10/26 09:31:02;;;;;;;3.03;2.63;;;;;;;10.56;100.00;96756.59;4104210;28;20235;-46
2023/10/26 09:33:04;;;;;;;2.75;2.15;;;;;;;10.59;100.00;96751.38;4121826;28;20218;-46